createdAt,value
2022-07-30T00:00:39.795Z,18.77
2022-07-30T00:03:08.555Z,18.74
2022-07-30T00:05:38.907Z,18.71
2022-07-30T00:08:07.718Z,18.68
2022-07-30T00:10:36.396Z,18.60
2022-07-30T00:13:05.256Z,18.55
2022-07-30T00:15:34.084Z,18.43
2022-07-30T00:18:02.811Z,18.51
2022-07-30T00:20:31.577Z,18.41
2022-07-30T00:23:05.822Z,18.42
2022-07-30T00:25:34.705Z,18.41
2022-07-30T00:28:03.579Z,18.43
2022-07-30T00:30:32.353Z,18.33
2022-07-30T00:33:01.135Z,18.32
2022-07-30T00:35:29.924Z,18.26
2022-07-30T00:37:58.624Z,18.27
2022-07-30T00:40:28.950Z,18.24
2022-07-30T00:42:57.922Z,18.21
2022-07-30T00:45:27.698Z,18.26
2022-07-30T00:47:56.448Z,18.31
2022-07-30T00:50:25.353Z,18.28
2022-07-30T00:52:54.478Z,18.28
2022-07-30T00:55:23.199Z,18.21
2022-07-30T00:57:53.271Z,18.16
2022-07-30T01:00:23.373Z,18.16
2022-07-30T01:02:52.095Z,18.07
2022-07-30T01:05:21.423Z,18.05
2022-07-30T01:07:51.515Z,18.10
2022-07-30T01:10:20.492Z,18.07
2022-07-30T01:12:49.330Z,18.07
2022-07-30T01:15:19.801Z,18.05
2022-07-30T01:17:53.097Z,18.07
2022-07-30T01:20:28.667Z,18.06
2022-07-30T01:23:03.668Z,18.12
2022-07-30T01:25:53.368Z,18.18
2022-07-30T01:28:27.616Z,18.20
2022-07-30T01:30:57.874Z,18.26
2022-07-30T01:33:26.890Z,18.30
2022-07-30T01:35:57.078Z,18.26
2022-07-30T01:38:27.130Z,18.10
2022-07-30T01:41:02.114Z,18.16
2022-07-30T01:43:31.409Z,18.08
2022-07-30T01:46:01.182Z,18.08
2022-07-30T01:48:30.727Z,18.04
2022-07-30T01:51:01.892Z,17.93
2022-07-30T01:53:32.742Z,18.03
2022-07-30T01:56:03.666Z,18.05
2022-07-30T01:58:34.238Z,18.04
2022-07-30T02:01:03.131Z,18.03
2022-07-30T02:03:32.077Z,18.08
2022-07-30T02:06:06.523Z,18.01
2022-07-30T02:08:41.606Z,18.05
2022-07-30T02:11:14.450Z,18.10
2022-07-30T02:13:48.299Z,18.07
2022-07-30T02:16:19.666Z,17.98
2022-07-30T02:18:56.844Z,18.02
2022-07-30T02:21:36.399Z,17.98
2022-07-30T02:24:08.650Z,17.86
2022-07-30T02:26:40.360Z,17.86
2022-07-30T02:29:11.637Z,17.83
2022-07-30T02:31:41.685Z,17.84
2022-07-30T02:34:11.548Z,17.86
2022-07-30T02:36:40.815Z,17.77
2022-07-30T02:39:09.777Z,17.75
2022-07-30T02:41:40.806Z,17.69
2022-07-30T02:44:10.160Z,17.69
2022-07-30T02:46:39.469Z,17.64
2022-07-30T02:49:09.311Z,17.52
2022-07-30T02:51:38.415Z,17.59
2022-07-30T02:54:08.548Z,17.48
2022-07-30T02:56:41.774Z,17.42
2022-07-30T02:59:11.679Z,17.38
2022-07-30T03:01:40.691Z,17.39
2022-07-30T03:04:10.242Z,17.27
2022-07-30T03:06:39.333Z,17.28
2022-07-30T03:09:08.503Z,17.14
2022-07-30T03:11:37.650Z,17.08
2022-07-30T03:14:08.682Z,17.11
2022-07-30T03:16:41.892Z,17.05
2022-07-30T03:19:11.589Z,17.04
2022-07-30T03:21:42.572Z,17.04
2022-07-30T03:24:13.057Z,17.02
2022-07-30T03:26:42.573Z,16.93
2022-07-30T03:29:13.960Z,16.99
2022-07-30T03:31:43.215Z,16.92
2022-07-30T03:34:14.481Z,16.98
2022-07-30T03:36:43.293Z,16.95
2022-07-30T03:39:12.599Z,16.94
2022-07-30T03:41:41.888Z,16.93
2022-07-30T03:44:12.118Z,16.91
2022-07-30T03:46:41.534Z,16.88
2022-07-30T03:49:11.043Z,16.92
2022-07-30T03:51:40.910Z,16.88
2022-07-30T03:54:13.570Z,16.89
2022-07-30T03:56:43.318Z,16.91
2022-07-30T03:59:14.820Z,16.90
2022-07-30T04:01:43.636Z,16.85
2022-07-30T04:04:12.689Z,16.85
2022-07-30T04:06:42.944Z,16.82
2022-07-30T04:09:12.934Z,16.82
2022-07-30T04:11:42.116Z,16.78
2022-07-30T04:14:11.023Z,16.82
2022-07-30T04:16:46.206Z,16.79
2022-07-30T04:19:18.098Z,16.76
2022-07-30T04:21:48.236Z,16.67
2022-07-30T04:24:17.349Z,16.64
2022-07-30T04:26:46.301Z,16.65
2022-07-30T04:29:18.200Z,16.66
2022-07-30T04:31:50.602Z,16.65
2022-07-30T04:34:19.687Z,16.66
2022-07-30T04:36:48.484Z,16.68
2022-07-30T04:39:17.254Z,16.72
2022-07-30T04:41:49.357Z,16.71
2022-07-30T04:44:19.990Z,16.61
2022-07-30T04:46:50.140Z,16.63
2022-07-30T04:49:19.761Z,16.63
2022-07-30T04:51:48.971Z,16.61
2022-07-30T04:54:18.213Z,16.66
2022-07-30T04:56:52.458Z,16.70
2022-07-30T04:59:25.608Z,16.72
2022-07-30T05:01:57.591Z,16.79
2022-07-30T05:04:26.643Z,16.84
2022-07-30T05:06:56.050Z,16.82
2022-07-30T05:09:25.090Z,16.79
2022-07-30T05:11:54.671Z,16.80
2022-07-30T05:14:24.526Z,16.89
2022-07-30T05:16:55.811Z,16.89
2022-07-30T05:19:25.148Z,16.91
2022-07-30T05:21:54.041Z,16.98
2022-07-30T05:24:23.066Z,17.20
2022-07-30T05:26:51.909Z,17.15
2022-07-30T05:29:20.626Z,17.18
2022-07-30T05:31:49.816Z,17.19
2022-07-30T05:34:19.990Z,17.33
2022-07-30T05:36:49.025Z,17.47
2022-07-30T05:39:18.097Z,17.55
2022-07-30T05:41:47.051Z,17.76
2022-07-30T05:44:19.587Z,18.16
2022-07-30T05:46:50.833Z,18.58
2022-07-30T05:49:21.139Z,18.90
2022-07-30T05:51:49.915Z,19.10
2022-07-30T05:54:19.376Z,19.16
2022-07-30T05:56:48.024Z,19.17
2022-07-30T05:59:16.779Z,19.07
2022-07-30T06:01:45.837Z,19.05
2022-07-30T06:04:14.734Z,19.01
2022-07-30T06:06:44.925Z,18.96
2022-07-30T06:09:13.744Z,18.96
2022-07-30T06:11:42.499Z,18.97
2022-07-30T06:14:11.209Z,19.03
2022-07-30T06:16:42.448Z,19.05
2022-07-30T06:19:11.293Z,19.07
2022-07-30T06:22:05.675Z,19.12
2022-07-30T06:24:35.933Z,19.10
2022-07-30T06:27:04.944Z,19.19
2022-07-30T06:29:33.924Z,19.22
2022-07-30T06:32:02.665Z,19.26
2022-07-30T06:34:31.353Z,19.46
2022-07-30T06:37:01.860Z,19.49
2022-07-30T06:39:56.321Z,19.66
2022-07-30T06:42:19.617Z,19.62
2022-07-30T06:44:48.476Z,19.72
2022-07-30T06:47:21.617Z,19.83
2022-07-30T06:49:50.308Z,20.07
2022-07-30T06:52:20.341Z,20.24
2022-07-30T06:54:49.194Z,20.41
2022-07-30T06:57:17.987Z,20.62
2022-07-30T06:59:57.290Z,20.70
2022-07-30T07:02:26.321Z,20.90
2022-07-30T07:04:55.049Z,21.15
2022-07-30T07:07:40.911Z,21.21
2022-07-30T07:10:11.872Z,21.53
2022-07-30T07:12:40.729Z,21.77
2022-07-30T07:15:10.479Z,21.86
2022-07-30T07:17:40.377Z,22.15
2022-07-30T07:20:10.184Z,22.13
2022-07-30T07:22:40.436Z,22.28
2022-07-30T07:25:11.074Z,22.64
2022-07-30T07:27:39.828Z,22.74
2022-07-30T07:30:09.744Z,22.83
2022-07-30T07:32:38.529Z,23.17
2022-07-30T07:35:07.861Z,23.41
2022-07-30T07:37:37.175Z,23.79
2022-07-30T07:40:08.690Z,24.01
2022-07-30T07:42:37.482Z,24.26
2022-07-30T07:45:07.204Z,24.22
2022-07-30T07:47:49.140Z,24.35
2022-07-30T07:50:22.024Z,24.50
2022-07-30T07:52:50.855Z,24.64
2022-07-30T07:55:21.101Z,24.80
2022-07-30T07:57:49.866Z,24.94
2022-07-30T08:00:19.126Z,24.86
2022-07-30T08:02:48.602Z,24.82
2022-07-30T08:05:18.408Z,24.95
2022-07-30T08:07:47.334Z,24.87
2022-07-30T08:10:17.720Z,25.02
2022-07-30T08:12:48.260Z,25.15
2022-07-30T08:15:21.741Z,25.23
2022-07-30T08:17:50.852Z,25.42
2022-07-30T08:20:19.696Z,25.71
2022-07-30T08:22:48.498Z,25.86
2022-07-30T08:25:23.905Z,25.74
2022-07-30T08:27:54.730Z,25.81
2022-07-30T08:30:24.785Z,25.99
2022-07-30T08:32:53.732Z,25.83
2022-07-30T08:35:22.837Z,26.00
2022-07-30T08:37:51.650Z,26.08
2022-07-30T08:40:21.525Z,26.27
2022-07-30T08:42:50.521Z,26.45
2022-07-30T08:45:20.833Z,26.67
2022-07-30T08:48:05.527Z,26.81
2022-07-30T08:50:35.296Z,26.92
2022-07-30T08:53:04.891Z,26.97
2022-07-30T08:55:33.673Z,27.02
2022-07-30T08:58:03.096Z,27.31
2022-07-30T09:00:34.118Z,27.02
2022-07-30T09:03:02.871Z,26.99
2022-07-30T09:05:31.629Z,26.96
2022-07-30T09:08:00.454Z,26.80
2022-07-30T09:10:29.212Z,27.02
2022-07-30T09:12:57.909Z,27.00
2022-07-30T09:15:28.387Z,27.34
2022-07-30T09:18:00.662Z,27.31
2022-07-30T09:20:30.879Z,27.52
2022-07-30T09:23:01.990Z,27.66
2022-07-30T09:25:38.338Z,27.83
2022-07-30T09:28:16.675Z,28.13
2022-07-30T09:30:47.635Z,27.82
2022-07-30T09:33:33.172Z,27.62
2022-07-30T09:36:02.796Z,27.60
2022-07-30T09:38:43.434Z,27.76
2022-07-30T09:41:29.319Z,27.79
2022-07-30T09:44:03.731Z,27.78
2022-07-30T09:46:42.482Z,27.51
2022-07-30T09:49:20.194Z,27.36
2022-07-30T09:51:54.577Z,27.24
2022-07-30T09:54:50.946Z,27.47
2022-07-30T09:57:25.602Z,27.48
2022-07-30T09:59:57.494Z,27.13
2022-07-30T10:02:31.931Z,26.54
2022-07-30T10:05:15.085Z,26.63
2022-07-30T10:07:51.188Z,27.02
2022-07-30T10:10:25.851Z,27.17
2022-07-30T10:12:57.749Z,27.07
2022-07-30T10:15:32.801Z,26.92
2022-07-30T10:18:06.697Z,26.81
2022-07-30T10:20:39.645Z,26.58
2022-07-30T10:23:18.371Z,26.51
2022-07-30T10:25:55.603Z,26.29
2022-07-30T10:28:25.302Z,26.49
2022-07-30T10:30:55.751Z,26.64
2022-07-30T10:33:36.190Z,27.02
2022-07-30T10:36:09.222Z,27.37
2022-07-30T10:38:41.467Z,27.19
2022-07-30T10:41:22.103Z,27.30
2022-07-30T10:44:42.252Z,27.59
2022-07-30T10:47:14.002Z,27.35
2022-07-30T10:49:43.328Z,26.95
2022-07-30T10:52:13.784Z,26.84
2022-07-30T10:54:45.537Z,26.87
2022-07-30T10:57:22.802Z,26.88
2022-07-30T11:00:17.599Z,27.34
2022-07-30T11:03:16.000Z,27.56
2022-07-30T11:05:47.846Z,27.64
2022-07-30T11:08:42.777Z,27.71
2022-07-30T11:11:59.609Z,28.13
2022-07-30T11:15:06.874Z,28.26
2022-07-30T11:18:12.239Z,28.51
2022-07-30T11:20:47.696Z,28.78
2022-07-30T11:23:39.153Z,28.78
2022-07-30T11:26:14.357Z,28.18
2022-07-30T11:28:45.251Z,27.86
2022-07-30T11:31:58.235Z,27.67
2022-07-30T11:34:30.990Z,27.51
2022-07-30T11:37:18.073Z,27.66
2022-07-30T11:40:12.724Z,28.11
2022-07-30T11:42:43.730Z,28.27
2022-07-30T11:45:26.832Z,28.15
2022-07-30T11:47:57.463Z,27.87
2022-07-30T11:50:27.996Z,27.89
2022-07-30T11:52:58.525Z,27.90
2022-07-30T11:55:29.055Z,27.86
2022-07-30T11:58:00.323Z,27.98
2022-07-30T12:00:36.441Z,28.24
2022-07-30T12:03:12.295Z,28.18
2022-07-30T12:05:41.851Z,28.53
2022-07-30T12:08:36.065Z,28.55
2022-07-30T12:11:01.839Z,28.91
2022-07-30T12:13:45.335Z,28.83
2022-07-30T12:16:17.240Z,28.90
2022-07-30T12:18:46.790Z,28.51
2022-07-30T12:21:16.779Z,28.23
2022-07-30T12:23:55.214Z,28.40
2022-07-30T12:26:26.745Z,28.65
2022-07-30T12:28:57.967Z,28.59
2022-07-30T12:31:27.353Z,28.65
2022-07-30T12:33:58.195Z,28.84
2022-07-30T12:36:31.052Z,28.50
2022-07-30T12:39:00.874Z,28.16
2022-07-30T12:41:44.010Z,27.72
2022-07-30T12:44:39.827Z,27.58
2022-07-30T12:47:21.695Z,27.62
2022-07-30T12:49:53.311Z,27.88
2022-07-30T12:52:28.649Z,28.01
2022-07-30T12:54:59.947Z,28.02
2022-07-30T12:57:29.072Z,28.01
2022-07-30T13:00:08.665Z,27.86
2022-07-30T13:02:37.544Z,27.98
2022-07-30T13:05:10.663Z,28.19
2022-07-30T13:07:54.547Z,28.16
2022-07-30T13:10:28.540Z,28.27
2022-07-30T13:12:59.740Z,28.19
2022-07-30T13:15:29.841Z,28.16
2022-07-30T13:17:58.689Z,27.92
2022-07-30T13:20:27.485Z,28.12
2022-07-30T13:23:01.524Z,28.18
2022-07-30T13:25:40.283Z,28.20
2022-07-30T13:28:09.671Z,28.22
2022-07-30T13:30:39.820Z,28.11
2022-07-30T13:33:11.649Z,28.17
2022-07-30T13:35:40.405Z,28.29
2022-07-30T13:38:09.476Z,28.16
2022-07-30T13:40:39.208Z,28.10
2022-07-30T13:43:08.934Z,27.97
2022-07-30T13:45:39.224Z,27.61
2022-07-30T13:48:08.003Z,27.64
2022-07-30T13:50:36.898Z,27.69
2022-07-30T13:53:05.696Z,27.77
2022-07-30T13:55:34.411Z,27.70
2022-07-30T13:58:03.393Z,27.52
2022-07-30T14:00:33.822Z,27.51
2022-07-30T14:03:05.460Z,27.29
2022-07-30T14:05:35.983Z,27.25
2022-07-30T14:08:12.115Z,27.29
2022-07-30T14:10:41.273Z,27.27
2022-07-30T14:13:19.408Z,27.25
2022-07-30T14:15:50.245Z,27.22
2022-07-30T14:18:20.377Z,27.39
2022-07-30T14:20:52.596Z,27.36
2022-07-30T14:23:21.560Z,27.63
2022-07-30T14:25:50.337Z,27.77
2022-07-30T14:28:19.072Z,27.84
2022-07-30T14:30:47.907Z,28.00
2022-07-30T14:33:17.265Z,28.12
2022-07-30T14:35:47.462Z,28.05
2022-07-30T14:38:19.265Z,28.05
2022-07-30T14:40:50.273Z,28.10
2022-07-30T14:43:19.644Z,28.20
2022-07-30T14:45:50.578Z,28.28
2022-07-30T14:48:19.398Z,28.22
2022-07-30T14:51:12.129Z,28.37
2022-07-30T14:53:39.778Z,28.20
2022-07-30T14:56:09.136Z,28.19
2022-07-30T14:58:38.489Z,28.04
2022-07-30T15:01:14.982Z,28.00
2022-07-30T15:03:45.599Z,27.89
2022-07-30T15:06:17.504Z,28.00
2022-07-30T15:08:47.043Z,28.02
2022-07-30T15:11:16.048Z,28.12
2022-07-30T15:13:50.119Z,28.09
2022-07-30T15:16:20.426Z,28.08
2022-07-30T15:18:49.284Z,27.98
2022-07-30T15:21:19.483Z,27.89
2022-07-30T15:23:48.473Z,27.84
2022-07-30T15:26:19.228Z,27.78
2022-07-30T15:28:48.377Z,27.80
2022-07-30T15:31:17.025Z,27.86
2022-07-30T15:33:45.738Z,27.94
2022-07-30T15:36:14.516Z,27.95
2022-07-30T15:38:44.678Z,27.88
2022-07-30T15:41:14.929Z,27.82
2022-07-30T15:43:43.637Z,27.70
2022-07-30T15:46:12.439Z,27.71
2022-07-30T15:48:41.180Z,27.59
2022-07-30T15:51:12.420Z,27.57
2022-07-30T15:53:41.282Z,27.57
2022-07-30T15:56:11.644Z,27.64
2022-07-30T15:58:43.448Z,27.65
2022-07-30T16:01:12.886Z,27.69
2022-07-30T16:03:41.926Z,27.71
2022-07-30T16:06:10.748Z,27.80
2022-07-30T16:08:39.436Z,27.72
2022-07-30T16:11:08.189Z,27.74
2022-07-30T16:13:41.391Z,27.65
2022-07-30T16:16:10.210Z,27.51
2022-07-30T16:18:38.993Z,27.48
2022-07-30T16:21:07.791Z,27.43
2022-07-30T16:23:38.980Z,27.33
2022-07-30T16:26:08.312Z,27.36
2022-07-30T16:28:37.101Z,27.36
2022-07-30T16:31:07.309Z,27.36
2022-07-30T16:33:36.533Z,27.41
2022-07-30T16:36:05.825Z,27.34
2022-07-30T16:38:34.699Z,27.30
2022-07-30T16:41:03.520Z,27.33
2022-07-30T16:43:32.721Z,27.23
2022-07-30T16:46:01.560Z,27.07
2022-07-30T16:48:32.691Z,27.07
2022-07-30T16:51:01.428Z,27.12
2022-07-30T16:53:30.449Z,27.05
2022-07-30T16:55:59.465Z,27.07
2022-07-30T16:58:30.794Z,27.16
2022-07-30T17:00:59.817Z,27.20
2022-07-30T17:03:28.864Z,27.19
2022-07-30T17:05:59.097Z,27.18
2022-07-30T17:08:28.497Z,27.03
2022-07-30T17:10:57.336Z,27.10
2022-07-30T17:13:26.740Z,26.97
2022-07-30T17:15:55.550Z,26.97
2022-07-30T17:18:24.410Z,26.85
2022-07-30T17:20:53.633Z,26.88
2022-07-30T17:23:24.441Z,26.84
2022-07-30T17:25:53.345Z,26.74
2022-07-30T17:28:26.825Z,26.78
2022-07-30T17:30:56.191Z,26.63
2022-07-30T17:33:25.908Z,26.64
2022-07-30T17:35:54.777Z,26.62
2022-07-30T17:38:25.118Z,26.47
2022-07-30T17:40:53.890Z,26.52
2022-07-30T17:43:23.030Z,26.44
2022-07-30T17:45:52.666Z,26.39
2022-07-30T17:48:21.925Z,26.31
2022-07-30T17:50:50.850Z,26.30
2022-07-30T17:53:19.924Z,26.16
2022-07-30T17:55:57.474Z,26.16
2022-07-30T17:58:27.023Z,26.10
2022-07-30T18:00:57.285Z,25.87
2022-07-30T18:03:26.227Z,25.98
2022-07-30T18:05:56.339Z,25.94
2022-07-30T18:08:25.563Z,25.95
2022-07-30T18:10:55.955Z,25.91
2022-07-30T18:13:26.417Z,25.95
2022-07-30T18:15:55.834Z,25.70
2022-07-30T18:18:25.108Z,25.76
2022-07-30T18:20:53.934Z,25.81
2022-07-30T18:23:22.861Z,25.75
2022-07-30T18:25:54.467Z,25.79
2022-07-30T18:28:25.273Z,25.75
2022-07-30T18:30:55.039Z,25.67
2022-07-30T18:33:24.026Z,25.65
2022-07-30T18:35:53.122Z,25.69
2022-07-30T18:38:21.967Z,25.57
2022-07-30T18:40:58.591Z,25.63
2022-07-30T18:43:29.627Z,25.58
2022-07-30T18:46:02.408Z,25.51
2022-07-30T18:48:31.274Z,25.32
2022-07-30T18:51:00.072Z,25.21
2022-07-30T18:53:29.264Z,25.19
2022-07-30T18:55:58.089Z,25.13
2022-07-30T18:58:28.456Z,25.06
2022-07-30T19:00:57.315Z,24.94
2022-07-30T19:03:26.428Z,24.87
2022-07-30T19:05:55.351Z,24.70
2022-07-30T19:08:24.228Z,24.59
2022-07-30T19:10:53.118Z,24.54
2022-07-30T19:13:23.477Z,24.40
2022-07-30T19:15:54.044Z,24.37
2022-07-30T19:18:22.902Z,24.24
2022-07-30T19:20:52.080Z,24.12
2022-07-30T19:23:20.966Z,24.04
2022-07-30T19:25:49.791Z,24.01
2022-07-30T19:28:19.213Z,23.94
2022-07-30T19:30:48.069Z,23.89
2022-07-30T19:33:18.262Z,23.61
2022-07-30T19:35:47.216Z,23.66
2022-07-30T19:38:21.764Z,23.64
2022-07-30T19:40:51.765Z,23.33
2022-07-30T19:43:23.867Z,23.51
2022-07-30T19:45:53.294Z,23.39
2022-07-30T19:48:29.329Z,23.35
2022-07-30T19:51:01.494Z,23.21
2022-07-30T19:56:19.783Z,23.17
2022-07-30T19:58:48.637Z,23.08
2022-07-30T20:01:18.693Z,23.14
2022-07-30T20:03:52.690Z,23.09
2022-07-30T20:06:22.166Z,22.87
2022-07-30T20:08:51.531Z,23.02
2022-07-30T20:11:36.054Z,22.92
2022-07-30T20:14:05.446Z,22.84
2022-07-30T20:16:35.586Z,22.81
2022-07-30T20:19:06.318Z,22.83
2022-07-30T20:21:56.501Z,22.85
2022-07-30T20:24:26.490Z,22.78
2022-07-30T20:26:55.457Z,22.70
2022-07-30T20:29:24.358Z,22.74
2022-07-30T20:31:53.414Z,22.61
2022-07-30T20:34:26.151Z,22.37
2022-07-30T20:36:56.835Z,22.37
2022-07-30T20:39:26.128Z,22.48
2022-07-30T20:42:07.873Z,22.28
2022-07-30T20:44:37.602Z,22.20
2022-07-30T20:47:08.376Z,22.22
2022-07-30T20:49:39.836Z,22.16
2022-07-30T20:52:10.711Z,22.09
2022-07-30T20:54:45.069Z,22.11
2022-07-30T20:57:15.479Z,21.97
2022-07-30T20:59:45.179Z,22.03
2022-07-30T21:02:15.077Z,21.99
2022-07-30T21:04:48.305Z,21.84
2022-07-30T21:07:20.528Z,21.76
2022-07-30T21:09:52.615Z,21.80
2022-07-30T21:12:38.784Z,21.69
2022-07-30T21:15:23.476Z,21.71
2022-07-30T21:17:53.245Z,21.70
2022-07-30T21:20:27.693Z,21.62
2022-07-30T21:22:57.402Z,21.55
2022-07-30T21:25:32.706Z,21.50
2022-07-30T21:28:03.215Z,21.51
2022-07-30T21:30:34.185Z,21.47
2022-07-30T21:33:03.152Z,21.38
2022-07-30T21:35:34.165Z,21.40
2022-07-30T21:38:02.979Z,21.37
2022-07-30T21:40:31.828Z,21.23
2022-07-30T21:43:00.710Z,21.26
2022-07-30T21:45:38.093Z,21.29
2022-07-30T21:48:10.935Z,21.07
2022-07-30T21:50:41.918Z,21.09
2022-07-30T21:53:12.089Z,21.18
2022-07-30T21:55:52.751Z,21.25
2022-07-30T21:58:26.163Z,21.18
2022-07-30T22:01:16.958Z,21.07
2022-07-30T22:04:04.068Z,21.12
2022-07-30T22:06:38.482Z,20.93
2022-07-30T22:09:18.265Z,21.04
2022-07-30T22:11:55.772Z,20.90
2022-07-30T22:14:25.708Z,20.95
2022-07-30T22:16:54.647Z,20.84
2022-07-30T22:19:23.583Z,20.96
2022-07-30T22:21:56.173Z,20.91
2022-07-30T22:24:29.639Z,20.95
2022-07-30T22:27:01.363Z,20.83
2022-07-30T22:29:34.353Z,20.85
2022-07-30T22:32:06.272Z,20.75
2022-07-30T22:34:36.869Z,20.73
2022-07-30T22:37:09.254Z,20.65
2022-07-30T22:39:50.534Z,20.65
2022-07-30T22:42:24.025Z,20.61
2022-07-30T22:44:54.898Z,20.59
2022-07-30T22:47:51.101Z,20.51
2022-07-30T22:50:15.117Z,20.57
2022-07-30T22:52:56.216Z,20.52
2022-07-30T22:55:31.183Z,20.55
2022-07-30T22:58:00.414Z,20.46
2022-07-30T23:00:31.549Z,20.50
2022-07-30T23:03:01.101Z,20.53
2022-07-30T23:05:31.062Z,20.51
2022-07-30T23:08:06.377Z,20.47
2022-07-30T23:10:35.226Z,20.42
2022-07-30T23:12:16.985Z,23.10
2022-07-30T23:13:04.462Z,20.38
2022-07-30T23:15:33.546Z,20.28
2022-07-30T23:18:02.789Z,20.22
2022-07-30T23:20:31.758Z,20.23
2022-07-30T23:23:01.475Z,20.12
2022-07-30T23:25:34.400Z,20.22
2022-07-30T23:28:07.654Z,20.17
2022-07-30T23:30:36.645Z,20.11
2022-07-30T23:33:05.588Z,20.12
2022-07-30T23:35:35.485Z,20.07
2022-07-30T23:38:04.291Z,19.95
2022-07-30T23:40:34.476Z,19.99
2022-07-30T23:43:03.268Z,19.89
2022-07-30T23:45:31.996Z,19.85
2022-07-30T23:48:03.329Z,19.78
2022-07-30T23:50:32.933Z,19.77
2022-07-30T23:53:01.839Z,19.72
2022-07-30T23:55:30.992Z,19.63
2022-07-30T23:58:01.129Z,19.57
